sensor_id;sensor_type;location;lat;lon;timestamp;temperature;humidity
75217;HTU21D;63800;51.972;5.682;2023-03-05T00:02:04;5.01;83.32
75217;HTU21D;63800;51.972;5.682;2023-03-05T00:04:29;4.88;83.57
75217;HTU21D;63800;51.972;5.682;2023-03-05T00:06:54;4.84;83.82
75217;HTU21D;63800;51.972;5.682;2023-03-05T00:09:20;4.94;83.35
75217;HTU21D;63800;51.972;5.682;2023-03-05T00:11:46;4.96;83.23
75217;HTU21D;63800;51.972;5.682;2023-03-05T00:14:11;4.92;83.29
75217;HTU21D;63800;51.972;5.682;2023-03-05T00:16:38;4.95;83.07
75217;HTU21D;63800;51.972;5.682;2023-03-05T00:19:03;4.89;83.52
75217;HTU21D;63800;51.972;5.682;2023-03-05T00:21:37;4.88;83.13
75217;HTU21D;63800;51.972;5.682;2023-03-05T00:24:12;4.96;82.45
75217;HTU21D;63800;51.972;5.682;2023-03-05T00:26:39;4.93;82.78
75217;HTU21D;63800;51.972;5.682;2023-03-05T00:29:06;5.12;81.99
75217;HTU21D;63800;51.972;5.682;2023-03-05T00:31:32;5.00;81.93
75217;HTU21D;63800;51.972;5.682;2023-03-05T00:34:01;4.93;82.53
75217;HTU21D;63800;51.972;5.682;2023-03-05T00:36:27;4.94;82.25
75217;HTU21D;63800;51.972;5.682;2023-03-05T00:38:53;4.97;81.89
75217;HTU21D;63800;51.972;5.682;2023-03-05T00:41:19;4.97;82.49
75217;HTU21D;63800;51.972;5.682;2023-03-05T00:43:44;4.98;82.03
75217;HTU21D;63800;51.972;5.682;2023-03-05T00:46:10;4.83;82.38
75217;HTU21D;63800;51.972;5.682;2023-03-05T00:48:35;4.88;82.42
75217;HTU21D;63800;51.972;5.682;2023-03-05T00:51:01;4.77;82.73
75217;HTU21D;63800;51.972;5.682;2023-03-05T00:53:27;4.61;83.32
75217;HTU21D;63800;51.972;5.682;2023-03-05T00:55:52;4.71;82.84
75217;HTU21D;63800;51.972;5.682;2023-03-05T00:58:18;4.74;82.33
75217;HTU21D;63800;51.972;5.682;2023-03-05T01:00:43;4.95;81.36
75217;HTU21D;63800;51.972;5.682;2023-03-05T01:03:09;4.64;82.89
75217;HTU21D;63800;51.972;5.682;2023-03-05T01:05:34;4.69;83.12
75217;HTU21D;63800;51.972;5.682;2023-03-05T01:08:00;5.01;80.88
75217;HTU21D;63800;51.972;5.682;2023-03-05T01:10:26;4.79;81.94
75217;HTU21D;63800;51.972;5.682;2023-03-05T01:12:53;4.78;81.45
75217;HTU21D;63800;51.972;5.682;2023-03-05T01:15:18;4.62;82.81
75217;HTU21D;63800;51.972;5.682;2023-03-05T01:17:44;4.71;82.10
75217;HTU21D;63800;51.972;5.682;2023-03-05T01:20:12;4.69;82.01
75217;HTU21D;63800;51.972;5.682;2023-03-05T01:22:38;4.73;81.61
75217;HTU21D;63800;51.972;5.682;2023-03-05T01:25:04;4.71;81.71
75217;HTU21D;63800;51.972;5.682;2023-03-05T01:27:29;4.57;82.81
75217;HTU21D;63800;51.972;5.682;2023-03-05T01:29:55;4.88;80.81
75217;HTU21D;63800;51.972;5.682;2023-03-05T01:32:20;4.97;80.40
75217;HTU21D;63800;51.972;5.682;2023-03-05T01:34:46;4.68;81.56
75217;HTU21D;63800;51.972;5.682;2023-03-05T01:37:11;4.90;80.34
75217;HTU21D;63800;51.972;5.682;2023-03-05T01:39:37;4.77;81.52
75217;HTU21D;63800;51.972;5.682;2023-03-05T01:42:03;5.06;80.21
75217;HTU21D;63800;51.972;5.682;2023-03-05T01:44:29;4.62;82.31
75217;HTU21D;63800;51.972;5.682;2023-03-05T01:46:55;4.72;82.17
75217;HTU21D;63800;51.972;5.682;2023-03-05T01:49:29;4.92;81.36
75217;HTU21D;63800;51.972;5.682;2023-03-05T01:54:39;4.75;82.55
75217;HTU21D;63800;51.972;5.682;2023-03-05T01:57:11;4.54;83.71
75217;HTU21D;63800;51.972;5.682;2023-03-05T01:59:40;4.59;83.55
75217;HTU21D;63800;51.972;5.682;2023-03-05T02:02:07;4.61;83.68
75217;HTU21D;63800;51.972;5.682;2023-03-05T02:04:41;4.56;84.03
75217;HTU21D;63800;51.972;5.682;2023-03-05T02:07:08;4.76;83.00
75217;HTU21D;63800;51.972;5.682;2023-03-05T02:09:37;4.86;82.44
75217;HTU21D;63800;51.972;5.682;2023-03-05T02:12:03;4.86;82.91
75217;HTU21D;63800;51.972;5.682;2023-03-05T02:14:28;4.75;83.42
75217;HTU21D;63800;51.972;5.682;2023-03-05T02:16:54;4.66;83.74
75217;HTU21D;63800;51.972;5.682;2023-03-05T02:19:19;4.87;82.76
75217;HTU21D;63800;51.972;5.682;2023-03-05T02:21:47;4.86;82.55
75217;HTU21D;63800;51.972;5.682;2023-03-05T02:24:30;4.60;84.24
75217;HTU21D;63800;51.972;5.682;2023-03-05T02:26:55;4.43;85.11
75217;HTU21D;63800;51.972;5.682;2023-03-05T02:29:21;4.51;84.86
75217;HTU21D;63800;51.972;5.682;2023-03-05T02:31:47;4.75;83.45
75217;HTU21D;63800;51.972;5.682;2023-03-05T02:34:12;4.63;84.48
75217;HTU21D;63800;51.972;5.682;2023-03-05T02:36:38;4.71;83.63
75217;HTU21D;63800;51.972;5.682;2023-03-05T02:39:03;4.67;83.71
75217;HTU21D;63800;51.972;5.682;2023-03-05T02:41:29;4.36;85.26
75217;HTU21D;63800;51.972;5.682;2023-03-05T02:43:54;4.44;85.51
75217;HTU21D;63800;51.972;5.682;2023-03-05T02:46:20;4.43;84.89
75217;HTU21D;63800;51.972;5.682;2023-03-05T02:48:45;4.41;85.29
75217;HTU21D;63800;51.972;5.682;2023-03-05T02:51:11;4.59;84.32
75217;HTU21D;63800;51.972;5.682;2023-03-05T02:53:37;4.43;84.81
75217;HTU21D;63800;51.972;5.682;2023-03-05T02:56:02;4.29;86.08
75217;HTU21D;63800;51.972;5.682;2023-03-05T02:58:28;4.16;86.00
75217;HTU21D;63800;51.972;5.682;2023-03-05T03:00:54;4.37;85.42
75217;HTU21D;63800;51.972;5.682;2023-03-05T03:03:19;4.33;85.40
75217;HTU21D;63800;51.972;5.682;2023-03-05T03:05:44;4.46;84.61
75217;HTU21D;63800;51.972;5.682;2023-03-05T03:08:10;4.44;84.64
75217;HTU21D;63800;51.972;5.682;2023-03-05T03:10:35;4.31;85.60
75217;HTU21D;63800;51.972;5.682;2023-03-05T03:13:01;4.48;84.45
75217;HTU21D;63800;51.972;5.682;2023-03-05T03:15:27;4.42;85.07
75217;HTU21D;63800;51.972;5.682;2023-03-05T03:17:53;4.09;86.32
75217;HTU21D;63800;51.972;5.682;2023-03-05T03:20:18;4.16;86.42
75217;HTU21D;63800;51.972;5.682;2023-03-05T03:22:45;4.22;86.00
75217;HTU21D;63800;51.972;5.682;2023-03-05T03:25:14;4.29;85.92
75217;HTU21D;63800;51.972;5.682;2023-03-05T03:27:39;4.17;86.43
75217;HTU21D;63800;51.972;5.682;2023-03-05T03:30:05;4.29;85.67
75217;HTU21D;63800;51.972;5.682;2023-03-05T03:32:32;4.08;86.86
75217;HTU21D;63800;51.972;5.682;2023-03-05T03:34:58;4.08;87.19
75217;HTU21D;63800;51.972;5.682;2023-03-05T03:37:24;4.17;86.54
75217;HTU21D;63800;51.972;5.682;2023-03-05T03:39:49;4.12;86.96
75217;HTU21D;63800;51.972;5.682;2023-03-05T03:42:19;4.12;86.86
75217;HTU21D;63800;51.972;5.682;2023-03-05T03:44:46;3.79;88.09
75217;HTU21D;63800;51.972;5.682;2023-03-05T03:47:11;3.95;87.23
75217;HTU21D;63800;51.972;5.682;2023-03-05T03:49:37;3.99;87.25
75217;HTU21D;63800;51.972;5.682;2023-03-05T03:52:06;4.19;86.15
75217;HTU21D;63800;51.972;5.682;2023-03-05T03:54:32;4.10;86.70
75217;HTU21D;63800;51.972;5.682;2023-03-05T03:56:57;4.18;86.81
75217;HTU21D;63800;51.972;5.682;2023-03-05T03:59:23;4.16;86.67
75217;HTU21D;63800;51.972;5.682;2023-03-05T04:01:49;4.10;87.16
75217;HTU21D;63800;51.972;5.682;2023-03-05T04:04:14;4.16;86.77
75217;HTU21D;63800;51.972;5.682;2023-03-05T04:06:40;4.16;86.27
75217;HTU21D;63800;51.972;5.682;2023-03-05T04:09:09;4.09;86.99
75217;HTU21D;63800;51.972;5.682;2023-03-05T04:11:35;4.21;86.95
75217;HTU21D;63800;51.972;5.682;2023-03-05T04:14:01;4.38;85.97
75217;HTU21D;63800;51.972;5.682;2023-03-05T04:16:26;3.98;87.25
75217;HTU21D;63800;51.972;5.682;2023-03-05T04:18:52;4.20;86.48
75217;HTU21D;63800;51.972;5.682;2023-03-05T04:21:17;4.05;87.31
75217;HTU21D;63800;51.972;5.682;2023-03-05T04:23:43;4.20;86.24
75217;HTU21D;63800;51.972;5.682;2023-03-05T04:26:08;4.23;86.29
75217;HTU21D;63800;51.972;5.682;2023-03-05T04:28:34;3.95;87.70
75217;HTU21D;63800;51.972;5.682;2023-03-05T04:30:59;3.95;88.07
75217;HTU21D;63800;51.972;5.682;2023-03-05T04:33:25;3.94;87.75
75217;HTU21D;63800;51.972;5.682;2023-03-05T04:35:50;4.16;86.83
75217;HTU21D;63800;51.972;5.682;2023-03-05T04:38:16;4.08;87.47
75217;HTU21D;63800;51.972;5.682;2023-03-05T04:40:43;4.15;87.11
75217;HTU21D;63800;51.972;5.682;2023-03-05T04:43:09;4.24;86.91
75217;HTU21D;63800;51.972;5.682;2023-03-05T04:45:35;3.84;88.57
75217;HTU21D;63800;51.972;5.682;2023-03-05T04:48:03;3.93;88.76
75217;HTU21D;63800;51.972;5.682;2023-03-05T04:50:28;4.00;88.67
75217;HTU21D;63800;51.972;5.682;2023-03-05T04:52:55;4.21;87.34
75217;HTU21D;63800;51.972;5.682;2023-03-05T04:55:20;4.08;88.48
75217;HTU21D;63800;51.972;5.682;2023-03-05T04:57:45;4.04;89.25
75217;HTU21D;63800;51.972;5.682;2023-03-05T05:00:13;4.06;89.65
75217;HTU21D;63800;51.972;5.682;2023-03-05T05:02:47;3.99;90.66
75217;HTU21D;63800;51.972;5.682;2023-03-05T05:05:19;4.23;88.86
75217;HTU21D;63800;51.972;5.682;2023-03-05T05:07:45;4.14;89.79
75217;HTU21D;63800;51.972;5.682;2023-03-05T05:10:11;4.03;90.15
75217;HTU21D;63800;51.972;5.682;2023-03-05T05:12:37;4.20;89.27
75217;HTU21D;63800;51.972;5.682;2023-03-05T05:15:03;4.10;90.04
75217;HTU21D;63800;51.972;5.682;2023-03-05T05:17:29;3.97;90.64
75217;HTU21D;63800;51.972;5.682;2023-03-05T05:19:58;4.00;90.41
75217;HTU21D;63800;51.972;5.682;2023-03-05T05:22:23;3.92;90.76
75217;HTU21D;63800;51.972;5.682;2023-03-05T05:24:49;3.91;91.41
75217;HTU21D;63800;51.972;5.682;2023-03-05T05:27:17;3.69;91.58
75217;HTU21D;63800;51.972;5.682;2023-03-05T05:29:42;3.75;91.76
75217;HTU21D;63800;51.972;5.682;2023-03-05T05:32:09;3.63;92.17
75217;HTU21D;63800;51.972;5.682;2023-03-05T05:34:34;3.59;92.53
75217;HTU21D;63800;51.972;5.682;2023-03-05T05:37:00;3.77;91.16
75217;HTU21D;63800;51.972;5.682;2023-03-05T05:39:25;4.00;90.14
75217;HTU21D;63800;51.972;5.682;2023-03-05T05:41:52;3.92;89.97
75217;HTU21D;63800;51.972;5.682;2023-03-05T05:44:17;3.64;91.17
75217;HTU21D;63800;51.972;5.682;2023-03-05T05:46:43;3.70;90.77
75217;HTU21D;63800;51.972;5.682;2023-03-05T05:49:08;3.78;90.82
75217;HTU21D;63800;51.972;5.682;2023-03-05T05:51:34;3.68;90.96
75217;HTU21D;63800;51.972;5.682;2023-03-05T05:53:59;3.82;89.82
75217;HTU21D;63800;51.972;5.682;2023-03-05T05:56:25;3.74;90.41
75217;HTU21D;63800;51.972;5.682;2023-03-05T05:58:51;3.73;91.21
75217;HTU21D;63800;51.972;5.682;2023-03-05T06:01:23;3.93;89.73
75217;HTU21D;63800;51.972;5.682;2023-03-05T06:03:49;3.88;90.01
75217;HTU21D;63800;51.972;5.682;2023-03-05T06:06:17;3.48;92.05
75217;HTU21D;63800;51.972;5.682;2023-03-05T06:08:43;3.79;90.37
75217;HTU21D;63800;51.972;5.682;2023-03-05T06:11:09;3.83;90.39
75217;HTU21D;63800;51.972;5.682;2023-03-05T06:13:35;3.77;89.93
75217;HTU21D;63800;51.972;5.682;2023-03-05T06:16:04;3.85;90.24
75217;HTU21D;63800;51.972;5.682;2023-03-05T06:18:31;3.83;89.99
75217;HTU21D;63800;51.972;5.682;2023-03-05T06:21:03;3.83;90.19
75217;HTU21D;63800;51.972;5.682;2023-03-05T06:23:29;3.71;90.82
75217;HTU21D;63800;51.972;5.682;2023-03-05T06:25:57;3.94;89.85
75217;HTU21D;63800;51.972;5.682;2023-03-05T06:28:23;3.90;89.68
75217;HTU21D;63800;51.972;5.682;2023-03-05T06:30:49;3.80;90.24
75217;HTU21D;63800;51.972;5.682;2023-03-05T06:33:14;4.06;89.15
75217;HTU21D;63800;51.972;5.682;2023-03-05T06:35:40;4.08;89.44
75217;HTU21D;63800;51.972;5.682;2023-03-05T06:38:06;3.94;89.65
75217;HTU21D;63800;51.972;5.682;2023-03-05T06:40:32;4.04;89.39
75217;HTU21D;63800;51.972;5.682;2023-03-05T06:42:57;3.88;90.44
75217;HTU21D;63800;51.972;5.682;2023-03-05T06:45:42;3.93;89.95
75217;HTU21D;63800;51.972;5.682;2023-03-05T06:48:07;4.19;88.82
75217;HTU21D;63800;51.972;5.682;2023-03-05T06:50:36;3.73;91.73
75217;HTU21D;63800;51.972;5.682;2023-03-05T06:53:02;3.85;90.83
75217;HTU21D;63800;51.972;5.682;2023-03-05T06:55:28;3.80;91.58
75217;HTU21D;63800;51.972;5.682;2023-03-05T06:57:53;3.55;92.37
75217;HTU21D;63800;51.972;5.682;2023-03-05T07:00:19;3.69;91.50
75217;HTU21D;63800;51.972;5.682;2023-03-05T07:02:45;3.87;90.93
75217;HTU21D;63800;51.972;5.682;2023-03-05T07:05:10;4.04;89.44
75217;HTU21D;63800;51.972;5.682;2023-03-05T07:07:36;3.92;90.40
75217;HTU21D;63800;51.972;5.682;2023-03-05T07:10:02;4.02;90.50
75217;HTU21D;63800;51.972;5.682;2023-03-05T07:12:27;4.09;90.64
75217;HTU21D;63800;51.972;5.682;2023-03-05T07:14:53;4.18;90.13
75217;HTU21D;63800;51.972;5.682;2023-03-05T07:17:18;3.97;91.90
75217;HTU21D;63800;51.972;5.682;2023-03-05T07:19:44;4.09;91.52
75217;HTU21D;63800;51.972;5.682;2023-03-05T07:22:09;4.29;90.76
75217;HTU21D;63800;51.972;5.682;2023-03-05T07:24:35;4.20;92.22
75217;HTU21D;63800;51.972;5.682;2023-03-05T07:27:00;4.28;90.24
75217;HTU21D;63800;51.972;5.682;2023-03-05T07:29:27;4.21;91.40
75217;HTU21D;63800;51.972;5.682;2023-03-05T07:31:53;4.23;91.46
75217;HTU21D;63800;51.972;5.682;2023-03-05T07:34:20;4.45;90.26
75217;HTU21D;63800;51.972;5.682;2023-03-05T07:36:49;4.35;90.69
75217;HTU21D;63800;51.972;5.682;2023-03-05T07:39:15;4.33;90.76
75217;HTU21D;63800;51.972;5.682;2023-03-05T07:41:43;4.37;90.69
75217;HTU21D;63800;51.972;5.682;2023-03-05T07:44:09;4.36;90.24
75217;HTU21D;63800;51.972;5.682;2023-03-05T07:46:34;4.33;90.88
75217;HTU21D;63800;51.972;5.682;2023-03-05T07:49:00;4.33;90.34
75217;HTU21D;63800;51.972;5.682;2023-03-05T07:51:26;4.37;90.79
75217;HTU21D;63800;51.972;5.682;2023-03-05T07:53:53;4.43;90.47
75217;HTU21D;63800;51.972;5.682;2023-03-05T07:56:30;4.32;91.04
75217;HTU21D;63800;51.972;5.682;2023-03-05T07:59:17;4.31;91.00
75217;HTU21D;63800;51.972;5.682;2023-03-05T08:01:42;4.38;90.69
75217;HTU21D;63800;51.972;5.682;2023-03-05T08:04:08;4.32;90.68
75217;HTU21D;63800;51.972;5.682;2023-03-05T08:06:38;4.35;90.12
75217;HTU21D;63800;51.972;5.682;2023-03-05T08:09:03;4.30;90.62
75217;HTU21D;63800;51.972;5.682;2023-03-05T08:11:29;4.29;91.49
75217;HTU21D;63800;51.972;5.682;2023-03-05T08:13:55;4.64;89.70
75217;HTU21D;63800;51.972;5.682;2023-03-05T08:16:23;4.69;90.57
75217;HTU21D;63800;51.972;5.682;2023-03-05T08:18:53;4.76;90.22
75217;HTU21D;63800;51.972;5.682;2023-03-05T08:21:27;4.87;89.64
75217;HTU21D;63800;51.972;5.682;2023-03-05T08:23:55;4.86;88.67
75217;HTU21D;63800;51.972;5.682;2023-03-05T08:26:22;4.71;90.14
75217;HTU21D;63800;51.972;5.682;2023-03-05T08:28:48;4.61;91.23
75217;HTU21D;63800;51.972;5.682;2023-03-05T08:31:15;4.66;90.63
75217;HTU21D;63800;51.972;5.682;2023-03-05T08:33:41;4.56;91.54
75217;HTU21D;63800;51.972;5.682;2023-03-05T08:36:08;4.36;93.76
75217;HTU21D;63800;51.972;5.682;2023-03-05T08:38:34;4.48;94.24
75217;HTU21D;63800;51.972;5.682;2023-03-05T08:40:59;4.82;92.68
75217;HTU21D;63800;51.972;5.682;2023-03-05T08:43:27;4.73;92.92
75217;HTU21D;63800;51.972;5.682;2023-03-05T08:45:55;4.80;90.90
75217;HTU21D;63800;51.972;5.682;2023-03-05T08:48:21;4.73;93.01
75217;HTU21D;63800;51.972;5.682;2023-03-05T08:50:47;4.84;92.64
75217;HTU21D;63800;51.972;5.682;2023-03-05T08:53:13;4.88;92.18
75217;HTU21D;63800;51.972;5.682;2023-03-05T08:55:42;5.07;90.16
75217;HTU21D;63800;51.972;5.682;2023-03-05T08:58:07;5.25;89.34
75217;HTU21D;63800;51.972;5.682;2023-03-05T09:00:32;4.92;90.88
75217;HTU21D;63800;51.972;5.682;2023-03-05T09:02:58;4.96;90.75
75217;HTU21D;63800;51.972;5.682;2023-03-05T09:05:23;5.13;89.09
75217;HTU21D;63800;51.972;5.682;2023-03-05T09:07:49;5.26;88.54
75217;HTU21D;63800;51.972;5.682;2023-03-05T09:10:14;5.20;90.08
75217;HTU21D;63800;51.972;5.682;2023-03-05T09:12:43;5.12;88.62
75217;HTU21D;63800;51.972;5.682;2023-03-05T09:15:10;5.21;87.13
75217;HTU21D;63800;51.972;5.682;2023-03-05T09:17:37;5.24;88.58
75217;HTU21D;63800;51.972;5.682;2023-03-05T09:20:04;5.08;88.38
75217;HTU21D;63800;51.972;5.682;2023-03-05T09:22:30;5.13;87.64
75217;HTU21D;63800;51.972;5.682;2023-03-05T09:24:56;5.42;84.86
75217;HTU21D;63800;51.972;5.682;2023-03-05T09:27:24;5.32;88.26
75217;HTU21D;63800;51.972;5.682;2023-03-05T09:29:50;5.38;87.63
75217;HTU21D;63800;51.972;5.682;2023-03-05T09:32:17;5.40;85.38
75217;HTU21D;63800;51.972;5.682;2023-03-05T09:34:42;5.57;84.22
75217;HTU21D;63800;51.972;5.682;2023-03-05T09:37:08;5.46;83.87
75217;HTU21D;63800;51.972;5.682;2023-03-05T09:39:33;5.68;83.04
75217;HTU21D;63800;51.972;5.682;2023-03-05T09:50:34;5.60;85.78
75217;HTU21D;63800;51.972;5.682;2023-03-05T09:55:52;5.67;83.56
75217;HTU21D;63800;51.972;5.682;2023-03-05T09:58:41;5.62;83.42
75217;HTU21D;63800;51.972;5.682;2023-03-05T10:01:10;5.68;84.18
75217;HTU21D;63800;51.972;5.682;2023-03-05T10:03:49;5.63;85.87
75217;HTU21D;63800;51.972;5.682;2023-03-05T10:06:29;5.53;84.29
75217;HTU21D;63800;51.972;5.682;2023-03-05T10:12:00;5.78;82.42
75217;HTU21D;63800;51.972;5.682;2023-03-05T10:14:29;5.56;82.83
75217;HTU21D;63800;51.972;5.682;2023-03-05T10:17:13;5.66;82.25
75217;HTU21D;63800;51.972;5.682;2023-03-05T10:19:54;5.86;81.27
75217;HTU21D;63800;51.972;5.682;2023-03-05T10:22:33;5.74;82.41
75217;HTU21D;63800;51.972;5.682;2023-03-05T10:33:14;5.78;80.40
75217;HTU21D;63800;51.972;5.682;2023-03-05T10:36:07;5.93;79.24
75217;HTU21D;63800;51.972;5.682;2023-03-05T10:44:28;5.87;77.92
75217;HTU21D;63800;51.972;5.682;2023-03-05T10:46:57;5.99;80.52
75217;HTU21D;63800;51.972;5.682;2023-03-05T10:49:36;5.93;76.83
75217;HTU21D;63800;51.972;5.682;2023-03-05T10:52:12;6.10;75.89
75217;HTU21D;63800;51.972;5.682;2023-03-05T10:54:40;6.09;79.00
75217;HTU21D;63800;51.972;5.682;2023-03-05T10:57:28;6.19;77.02
75217;HTU21D;63800;51.972;5.682;2023-03-05T11:00:09;6.19;77.26
75217;HTU21D;63800;51.972;5.682;2023-03-05T11:03:00;6.01;77.43
75217;HTU21D;63800;51.972;5.682;2023-03-05T11:05:49;6.09;76.54
75217;HTU21D;63800;51.972;5.682;2023-03-05T11:13:30;6.50;73.39
75217;HTU21D;63800;51.972;5.682;2023-03-05T11:16:02;6.90;72.62
75217;HTU21D;63800;51.972;5.682;2023-03-05T11:18:29;6.90;72.43
75217;HTU21D;63800;51.972;5.682;2023-03-05T11:21:09;7.20;70.87
75217;HTU21D;63800;51.972;5.682;2023-03-05T11:23:35;7.35;70.90
75217;HTU21D;63800;51.972;5.682;2023-03-05T11:26:04;7.72;71.68
75217;HTU21D;63800;51.972;5.682;2023-03-05T11:36:33;8.16;64.86
75217;HTU21D;63800;51.972;5.682;2023-03-05T11:41:37;7.78;66.48
75217;HTU21D;63800;51.972;5.682;2023-03-05T11:44:04;8.08;67.36
75217;HTU21D;63800;51.972;5.682;2023-03-05T11:46:37;7.27;69.63
75217;HTU21D;63800;51.972;5.682;2023-03-05T11:49:06;8.47;66.85
75217;HTU21D;63800;51.972;5.682;2023-03-05T11:51:42;8.74;64.42
75217;HTU21D;63800;51.972;5.682;2023-03-05T11:54:14;8.29;66.11
75217;HTU21D;63800;51.972;5.682;2023-03-05T11:56:42;9.09;62.98
75217;HTU21D;63800;51.972;5.682;2023-03-05T11:59:23;8.61;63.59
75217;HTU21D;63800;51.972;5.682;2023-03-05T12:01:55;8.62;62.79
75217;HTU21D;63800;51.972;5.682;2023-03-05T12:04:21;8.28;62.21
75217;HTU21D;63800;51.972;5.682;2023-03-05T12:07:02;8.18;62.99
75217;HTU21D;63800;51.972;5.682;2023-03-05T12:17:37;8.26;61.65
75217;HTU21D;63800;51.972;5.682;2023-03-05T12:20:24;8.98;60.73
75217;HTU21D;63800;51.972;5.682;2023-03-05T12:22:52;8.64;61.78
75217;HTU21D;63800;51.972;5.682;2023-03-05T12:25:33;10.55;55.74
75217;HTU21D;63800;51.972;5.682;2023-03-05T12:27:59;10.87;54.82
75217;HTU21D;63800;51.972;5.682;2023-03-05T12:38:49;10.58;56.19
75217;HTU21D;63800;51.972;5.682;2023-03-05T12:46:33;9.48;58.17
75217;HTU21D;63800;51.972;5.682;2023-03-05T12:49:45;9.70;58.06
75217;HTU21D;63800;51.972;5.682;2023-03-05T12:51:51;9.00;58.58
75217;HTU21D;63800;51.972;5.682;2023-03-05T12:54:24;8.18;61.06
75217;HTU21D;63800;51.972;5.682;2023-03-05T12:56:52;8.12;62.68
75217;HTU21D;63800;51.972;5.682;2023-03-05T12:59:21;8.11;61.85
75217;HTU21D;63800;51.972;5.682;2023-03-05T13:02:00;7.28;64.31
75217;HTU21D;63800;51.972;5.682;2023-03-05T13:04:29;7.47;64.27
75217;HTU21D;63800;51.972;5.682;2023-03-05T13:07:05;7.24;66.17
75217;HTU21D;63800;51.972;5.682;2023-03-05T13:09:38;7.55;64.07
75217;HTU21D;63800;51.972;5.682;2023-03-05T13:12:11;8.02;64.05
75217;HTU21D;63800;51.972;5.682;2023-03-05T13:14:44;8.04;64.81
75217;HTU21D;63800;51.972;5.682;2023-03-05T13:17:42;7.79;63.58
75217;HTU21D;63800;51.972;5.682;2023-03-05T13:20:32;7.92;62.92
75217;HTU21D;63800;51.972;5.682;2023-03-05T13:23:37;7.55;64.22
75217;HTU21D;63800;51.972;5.682;2023-03-05T13:31:30;7.48;63.26
75217;HTU21D;63800;51.972;5.682;2023-03-05T13:36:50;7.43;63.24
75217;HTU21D;63800;51.972;5.682;2023-03-05T13:39:23;7.20;63.05
75217;HTU21D;63800;51.972;5.682;2023-03-05T13:42:02;7.30;63.19
75217;HTU21D;63800;51.972;5.682;2023-03-05T13:44:29;7.09;64.40
75217;HTU21D;63800;51.972;5.682;2023-03-05T13:47:14;7.30;64.01
75217;HTU21D;63800;51.972;5.682;2023-03-05T13:49:40;7.52;63.80
75217;HTU21D;63800;51.972;5.682;2023-03-05T13:52:07;7.25;63.56
75217;HTU21D;63800;51.972;5.682;2023-03-05T13:54:32;7.07;63.46
75217;HTU21D;63800;51.972;5.682;2023-03-05T13:57:00;7.00;64.66
75217;HTU21D;63800;51.972;5.682;2023-03-05T13:59:28;7.26;64.01
75217;HTU21D;63800;51.972;5.682;2023-03-05T14:02:03;7.19;63.73
75217;HTU21D;63800;51.972;5.682;2023-03-05T14:04:33;7.14;62.70
75217;HTU21D;63800;51.972;5.682;2023-03-05T14:07:05;7.22;63.30
75217;HTU21D;63800;51.972;5.682;2023-03-05T14:15:00;7.27;63.67
75217;HTU21D;63800;51.972;5.682;2023-03-05T14:20:13;7.11;65.00
75217;HTU21D;63800;51.972;5.682;2023-03-05T14:22:43;6.97;64.92
75217;HTU21D;63800;51.972;5.682;2023-03-05T14:28:02;6.94;64.66
75217;HTU21D;63800;51.972;5.682;2023-03-05T14:30:28;7.00;64.35
75217;HTU21D;63800;51.972;5.682;2023-03-05T14:32:55;6.93;64.31
75217;HTU21D;63800;51.972;5.682;2023-03-05T14:35:26;6.86;66.09
75217;HTU21D;63800;51.972;5.682;2023-03-05T14:37:54;6.86;64.86
75217;HTU21D;63800;51.972;5.682;2023-03-05T14:40:26;6.85;65.00
75217;HTU21D;63800;51.972;5.682;2023-03-05T14:43:02;6.83;64.67
75217;HTU21D;63800;51.972;5.682;2023-03-05T14:45:37;6.83;66.20
75217;HTU21D;63800;51.972;5.682;2023-03-05T14:48:04;6.80;66.57
75217;HTU21D;63800;51.972;5.682;2023-03-05T14:50:40;6.66;65.93
75217;HTU21D;63800;51.972;5.682;2023-03-05T14:53:14;6.53;66.61
75217;HTU21D;63800;51.972;5.682;2023-03-05T14:55:41;6.40;67.81
75217;HTU21D;63800;51.972;5.682;2023-03-05T14:58:16;6.49;67.29
75217;HTU21D;63800;51.972;5.682;2023-03-05T15:00:43;6.58;67.38
75217;HTU21D;63800;51.972;5.682;2023-03-05T15:03:13;6.46;67.18
75217;HTU21D;63800;51.972;5.682;2023-03-05T15:05:39;6.56;66.85
75217;HTU21D;63800;51.972;5.682;2023-03-05T15:08:05;6.63;67.02
75217;HTU21D;63800;51.972;5.682;2023-03-05T15:10:38;6.61;66.91
75217;HTU21D;63800;51.972;5.682;2023-03-05T15:13:03;6.52;66.62
75217;HTU21D;63800;51.972;5.682;2023-03-05T15:15:28;6.57;66.71
75217;HTU21D;63800;51.972;5.682;2023-03-05T15:17:54;6.15;67.30
75217;HTU21D;63800;51.972;5.682;2023-03-05T15:20:23;6.45;66.62
75217;HTU21D;63800;51.972;5.682;2023-03-05T15:22:48;6.42;67.30
75217;HTU21D;63800;51.972;5.682;2023-03-05T15:25:15;6.44;67.62
75217;HTU21D;63800;51.972;5.682;2023-03-05T15:27:40;6.70;66.52
75217;HTU21D;63800;51.972;5.682;2023-03-05T15:30:07;6.63;67.62
75217;HTU21D;63800;51.972;5.682;2023-03-05T15:32:33;6.54;68.29
75217;HTU21D;63800;51.972;5.682;2023-03-05T15:34:59;6.51;68.51
75217;HTU21D;63800;51.972;5.682;2023-03-05T15:37:25;6.42;68.42
75217;HTU21D;63800;51.972;5.682;2023-03-05T15:39:51;6.44;68.84
75217;HTU21D;63800;51.972;5.682;2023-03-05T15:42:17;6.57;68.48
75217;HTU21D;63800;51.972;5.682;2023-03-05T15:44:43;6.35;69.45
75217;HTU21D;63800;51.972;5.682;2023-03-05T15:47:08;6.46;69.19
75217;HTU21D;63800;51.972;5.682;2023-03-05T15:49:34;6.48;69.07
75217;HTU21D;63800;51.972;5.682;2023-03-05T15:52:00;6.51;68.72
75217;HTU21D;63800;51.972;5.682;2023-03-05T15:54:25;6.28;69.48
75217;HTU21D;63800;51.972;5.682;2023-03-05T15:56:52;6.23;70.70
75217;HTU21D;63800;51.972;5.682;2023-03-05T15:59:17;6.26;71.49
75217;HTU21D;63800;51.972;5.682;2023-03-05T16:01:46;6.12;72.32
75217;HTU21D;63800;51.972;5.682;2023-03-05T16:04:14;5.79;73.86
75217;HTU21D;63800;51.972;5.682;2023-03-05T16:06:41;5.96;72.41
75217;HTU21D;63800;51.972;5.682;2023-03-05T16:09:06;5.93;72.52
75217;HTU21D;63800;51.972;5.682;2023-03-05T16:11:34;5.85;72.06
75217;HTU21D;63800;51.972;5.682;2023-03-05T16:14:05;5.80;72.67
75217;HTU21D;63800;51.972;5.682;2023-03-05T16:16:33;5.69;72.73
75217;HTU21D;63800;51.972;5.682;2023-03-05T16:19:00;5.83;72.79
75217;HTU21D;63800;51.972;5.682;2023-03-05T16:21:26;5.65;72.91
75217;HTU21D;63800;51.972;5.682;2023-03-05T16:23:52;5.64;73.03
75217;HTU21D;63800;51.972;5.682;2023-03-05T16:26:17;5.61;73.61
75217;HTU21D;63800;51.972;5.682;2023-03-05T16:28:43;5.64;73.64
75217;HTU21D;63800;51.972;5.682;2023-03-05T16:31:09;5.63;73.25
75217;HTU21D;63800;51.972;5.682;2023-03-05T16:33:35;5.66;73.46
75217;HTU21D;63800;51.972;5.682;2023-03-05T16:38:36;5.79;73.28
75217;HTU21D;63800;51.972;5.682;2023-03-05T16:41:02;5.74;72.79
75217;HTU21D;63800;51.972;5.682;2023-03-05T16:43:28;5.80;73.08
75217;HTU21D;63800;51.972;5.682;2023-03-05T16:45:53;5.62;73.74
75217;HTU21D;63800;51.972;5.682;2023-03-05T16:48:19;5.80;74.17
75217;HTU21D;63800;51.972;5.682;2023-03-05T16:50:44;5.89;73.61
75217;HTU21D;63800;51.972;5.682;2023-03-05T16:53:10;5.75;74.08
75217;HTU21D;63800;51.972;5.682;2023-03-05T16:55:36;5.75;74.36
75217;HTU21D;63800;51.972;5.682;2023-03-05T16:58:02;5.74;74.01
75217;HTU21D;63800;51.972;5.682;2023-03-05T17:00:27;5.66;74.38
75217;HTU21D;63800;51.972;5.682;2023-03-05T17:02:53;5.66;74.61
75217;HTU21D;63800;51.972;5.682;2023-03-05T17:05:18;5.65;74.41
75217;HTU21D;63800;51.972;5.682;2023-03-05T17:07:44;5.66;73.96